Time;durP1;ratioP1;P1;durP2;ratioP2;P2;SDS_P1;SDS_P2;PMS_P1;PMS_P2;Temp;Humidity;BMP_temperature;BMP_pressure;BME280_temperature;BME280_humidity;BME280_pressure;Samples;Min_cycle;Max_cycle;Signal;HPM_P1;HPM_P2
2023/05/31 00:01:27;;;;;;;1.40;1.30;;;20.30;53.70;;;;;;5071691;28;20186;-68
2023/05/31 00:03:53;;;;;;;1.20;1.10;;;20.30;53.70;;;;;;5072176;28;20630;-68
2023/05/31 00:06:18;;;;;;;1.17;0.95;;;20.30;53.80;;;;;;5071256;28;20718;-68
2023/05/31 00:08:44;;;;;;;1.20;1.10;;;20.30;53.70;;;;;;5072068;28;20689;-67
2023/05/31 00:11:10;;;;;;;1.30;1.20;;;20.30;53.80;;;;;;5071642;28;20214;-66
2023/05/31 00:13:35;;;;;;;1.25;1.02;;;20.30;53.70;;;;;;5071340;28;20175;-66
2023/05/31 00:16:01;;;;;;;1.88;1.20;;;20.30;53.80;;;;;;5071946;28;20518;-66
2023/05/31 00:18:26;;;;;;;1.05;0.95;;;20.30;53.80;;;;;;5071736;28;20167;-67
2023/05/31 00:20:52;;;;;;;1.10;1.10;;;20.30;53.80;;;;;;5071391;28;20669;-66
2023/05/31 00:23:17;;;;;;;1.38;1.27;;;20.20;53.80;;;;;;5071606;28;20637;-66
2023/05/31 00:25:43;;;;;;;1.38;1.20;;;20.20;53.80;;;;;;5071155;28;20170;-66
2023/05/31 00:28:08;;;;;;;1.30;1.20;;;20.20;53.80;;;;;;5071493;28;20174;-67
2023/05/31 00:30:34;;;;;;;1.38;1.27;;;20.20;53.80;;;;;;5071662;28;20224;-68
2023/05/31 00:32:59;;;;;;;1.15;1.02;;;20.30;53.90;;;;;;5071242;28;20297;-68
2023/05/31 00:35:25;;;;;;;1.00;1.00;;;20.20;53.80;;;;;;5071648;28;20328;-69
2023/05/31 00:37:50;;;;;;;1.55;1.30;;;20.20;53.90;;;;;;5071692;28;20253;-68
2023/05/31 00:40:16;;;;;;;0.80;0.80;;;20.30;54.00;;;;;;5071411;28;20202;-67
2023/05/31 00:42:41;;;;;;;1.23;1.20;;;20.20;53.90;;;;;;5075171;28;20204;-67
2023/05/31 00:45:07;;;;;;;1.05;0.98;;;20.20;54.00;;;;;;5074926;28;20239;-67
2023/05/31 00:47:34;;;;;;;1.30;1.20;;;20.20;54.00;;;;;;5074276;28;20175;-67
2023/05/31 00:49:59;;;;;;;1.40;1.30;;;20.20;54.00;;;;;;5073931;28;20258;-67
2023/05/31 00:52:26;;;;;;;1.52;1.23;;;20.20;53.90;;;;;;5073726;28;20261;-66
2023/05/31 00:54:51;;;;;;;1.42;1.13;;;20.20;54.00;;;;;;5073209;28;20178;-67
2023/05/31 00:57:17;;;;;;;1.38;1.08;;;20.20;54.00;;;;;;5074638;28;20641;-67
2023/05/31 00:59:42;;;;;;;1.15;1.10;;;20.10;54.00;;;;;;5073654;28;20261;-67
2023/05/31 01:02:08;;;;;;;1.20;1.10;;;20.20;54.10;;;;;;5072919;28;20170;-68
2023/05/31 01:04:33;;;;;;;1.45;1.02;;;20.20;54.00;;;;;;5073829;28;20262;-68
2023/05/31 01:07:00;;;;;;;1.25;1.15;;;20.20;54.10;;;;;;5074978;28;20177;-67
2023/05/31 01:09:26;;;;;;;1.75;1.25;;;20.20;54.00;;;;;;5073694;28;20266;-66
2023/05/31 01:12:03;;;;;;;1.38;1.27;;;20.20;54.10;;;;;;5073390;28;20206;-66
2023/05/31 01:15:02;;;;;;;1.48;1.38;;;20.20;54.10;;;;;;5073135;28;20257;-67
2023/05/31 01:17:46;;;;;;;1.50;1.40;;;20.10;54.00;;;;;;5074284;28;20702;-67
2023/05/31 01:20:13;;;;;;;1.08;1.05;;;20.10;54.00;;;;;;5074535;28;20544;-67
2023/05/31 01:22:58;;;;;;;1.63;1.30;;;20.10;54.10;;;;;;5072668;28;20253;-66
2023/05/31 01:25:27;;;;;;;1.50;1.33;;;20.10;54.10;;;;;;5074317;28;20194;-66
2023/05/31 01:27:54;;;;;;;1.50;1.10;;;20.10;54.10;;;;;;5074564;28;20181;-67
2023/05/31 01:30:20;;;;;;;1.38;1.10;;;20.10;54.10;;;;;;5073307;28;20225;-67
2023/05/31 01:32:46;;;;;;;1.30;1.23;;;20.10;54.10;;;;;;5073205;28;20214;-67
2023/05/31 01:35:11;;;;;;;1.83;1.33;;;20.10;54.10;;;;;;5072656;28;20217;-68
2023/05/31 01:37:37;;;;;;;1.38;1.30;;;20.10;54.10;;;;;;5073472;28;20264;-68
2023/05/31 01:40:04;;;;;;;1.40;1.30;;;20.00;54.10;;;;;;5074377;28;20171;-68
2023/05/31 01:42:30;;;;;;;1.27;1.20;;;20.10;54.10;;;;;;5073702;28;20672;-68
2023/05/31 01:44:55;;;;;;;1.95;1.23;;;20.10;54.10;;;;;;5073322;28;20178;-67
2023/05/31 01:47:21;;;;;;;1.45;1.35;;;20.10;54.10;;;;;;5072516;28;20175;-68
2023/05/31 01:49:47;;;;;;;1.45;1.10;;;20.10;54.20;;;;;;5072652;28;20240;-67
2023/05/31 01:52:13;;;;;;;1.30;1.20;;;20.10;54.20;;;;;;5070873;28;20182;-66
2023/05/31 01:54:39;;;;;;;1.50;1.40;;;20.00;54.20;;;;;;5072776;28;20179;-66
2023/05/31 01:57:05;;;;;;;1.33;1.23;;;20.00;54.20;;;;;;5072185;28;20518;-67
2023/05/31 01:59:32;;;;;;;1.40;1.25;;;20.00;54.10;;;;;;5073844;28;20316;-68
2023/05/31 02:01:58;;;;;;;1.17;1.15;;;20.00;54.20;;;;;;5072529;28;20304;-68
2023/05/31 02:04:23;;;;;;;1.70;1.40;;;20.00;54.20;;;;;;5071576;28;20198;-68
2023/05/31 02:06:51;;;;;;;1.52;1.42;;;19.90;54.10;;;;;;5073902;28;20253;-67
2023/05/31 02:09:16;;;;;;;1.70;1.60;;;20.00;54.20;;;;;;5073402;28;20170;-67
2023/05/31 02:11:42;;;;;;;1.27;1.17;;;20.00;54.20;;;;;;5072744;28;20335;-66
2023/05/31 02:14:07;;;;;;;1.25;1.15;;;20.00;54.20;;;;;;5073277;28;20206;-67
2023/05/31 02:16:33;;;;;;;1.60;1.50;;;20.00;54.30;;;;;;5073380;28;20244;-67
2023/05/31 02:18:58;;;;;;;1.42;1.33;;;20.00;54.30;;;;;;5073096;28;20198;-67
2023/05/31 02:21:24;;;;;;;1.63;1.52;;;20.00;54.20;;;;;;5073137;28;20202;-67
2023/05/31 02:23:49;;;;;;;1.35;1.13;;;20.00;54.20;;;;;;5073451;28;20174;-66
2023/05/31 02:26:15;;;;;;;1.65;1.55;;;19.90;54.20;;;;;;5072400;28;20178;-67
2023/05/31 02:28:41;;;;;;;2.00;1.30;;;20.00;54.30;;;;;;5071924;28;20625;-66
2023/05/31 02:31:06;;;;;;;1.60;1.50;;;19.90;54.30;;;;;;5072768;28;20224;-68
2023/05/31 02:33:32;;;;;;;1.40;1.30;;;19.90;54.30;;;;;;5072362;28;20181;-69
2023/05/31 02:35:58;;;;;;;1.88;1.70;;;19.90;54.30;;;;;;5073316;28;20537;-68
2023/05/31 02:38:24;;;;;;;2.75;1.75;;;19.90;54.30;;;;;;5072533;28;20218;-68
2023/05/31 02:40:49;;;;;;;1.40;1.30;;;19.90;54.30;;;;;;5072406;28;20543;-67
2023/05/31 02:43:15;;;;;;;1.33;1.23;;;19.90;54.30;;;;;;5072719;28;20173;-67
2023/05/31 02:45:40;;;;;;;1.60;1.50;;;19.90;54.30;;;;;;5072856;28;20231;-68
2023/05/31 02:48:07;;;;;;;2.13;1.70;;;19.90;54.30;;;;;;5071816;28;20262;-67
2023/05/31 02:50:32;;;;;;;2.00;1.65;;;19.90;54.30;;;;;;5072979;28;20241;-67
2023/05/31 02:53:00;;;;;;;2.33;1.77;;;19.90;54.30;;;;;;5072928;28;20205;-66
2023/05/31 02:55:25;;;;;;;1.80;1.50;;;19.90;54.30;;;;;;5071772;28;20183;-67
2023/05/31 02:57:51;;;;;;;1.95;1.70;;;19.90;54.30;;;;;;5072795;28;20323;-67
2023/05/31 03:00:18;;;;;;;1.75;1.45;;;19.90;54.30;;;;;;5072108;28;20641;-69
2023/05/31 03:02:43;;;;;;;1.77;1.30;;;19.90;54.40;;;;;;5072539;28;20197;-68
2023/05/31 03:05:09;;;;;;;2.85;1.80;;;19.90;54.30;;;;;;5072404;28;20637;-68
2023/05/31 03:07:35;;;;;;;1.73;1.63;;;19.80;54.30;;;;;;5072112;28;20653;-68
2023/05/31 03:10:00;;;;;;;2.25;1.80;;;19.90;54.30;;;;;;5072520;28;20206;-67
2023/05/31 03:12:26;;;;;;;1.80;1.70;;;19.90;54.60;;;;;;5072357;28;20253;-66
2023/05/31 03:14:52;;;;;;;1.77;1.67;;;19.90;54.40;;;;;;5071773;28;20174;-66
2023/05/31 03:17:17;;;;;;;1.90;1.70;;;19.80;54.40;;;;;;5072190;28;20231;-67
2023/05/31 03:19:43;;;;;;;2.08;1.63;;;19.80;54.40;;;;;;5072399;28;20170;-67
2023/05/31 03:22:11;;;;;;;2.53;1.80;;;19.80;54.40;;;;;;5071639;28;20174;-67
2023/05/31 03:24:37;;;;;;;2.80;1.60;;;19.80;54.40;;;;;;5072481;28;20189;-66
2023/05/31 03:27:03;;;;;;;1.83;1.73;;;19.80;54.40;;;;;;5072465;28;20174;-66
2023/05/31 03:29:28;;;;;;;2.00;1.77;;;19.80;54.40;;;;;;5071244;28;20209;-67
2023/05/31 03:31:54;;;;;;;1.80;1.70;;;19.80;54.40;;;;;;5071188;28;20198;-67
2023/05/31 03:34:21;;;;;;;2.05;1.88;;;19.70;54.30;;;;;;5072188;28;20178;-68
2023/05/31 03:36:46;;;;;;;2.92;1.90;;;19.80;54.40;;;;;;5071314;28;20708;-68
2023/05/31 03:39:12;;;;;;;1.98;1.88;;;19.80;54.40;;;;;;5072156;28;20280;-68
2023/05/31 03:41:37;;;;;;;2.47;1.70;;;19.80;54.50;;;;;;5072253;28;20265;-67
2023/05/31 03:44:03;;;;;;;2.20;2.00;;;19.80;54.50;;;;;;5071430;28;20170;-67
2023/05/31 03:46:28;;;;;;;1.77;1.67;;;19.80;54.50;;;;;;5072193;28;20181;-67
2023/05/31 03:48:54;;;;;;;2.13;2.00;;;19.80;54.40;;;;;;5072338;28;20181;-67
2023/05/31 03:51:19;;;;;;;2.10;1.90;;;19.80;54.40;;;;;;5071274;28;20213;-67
2023/05/31 03:53:45;;;;;;;2.15;1.95;;;19.80;54.40;;;;;;5070801;28;20630;-66
2023/05/31 03:56:10;;;;;;;2.03;1.88;;;19.80;54.50;;;;;;5071858;28;20178;-67
2023/05/31 03:58:36;;;;;;;1.90;1.80;;;19.80;54.50;;;;;;5071286;28;20636;-68
2023/05/31 04:01:02;;;;;;;2.40;2.20;;;19.80;54.40;;;;;;5071910;28;20188;-68
2023/05/31 04:03:28;;;;;;;2.40;2.20;;;19.80;54.50;;;;;;5071930;28;20178;-69
2023/05/31 04:05:53;;;;;;;2.15;2.00;;;19.80;54.40;;;;;;5071536;28;20693;-68
2023/05/31 04:08:19;;;;;;;2.00;1.90;;;19.80;54.40;;;;;;5071760;28;20170;-67
2023/05/31 04:10:44;;;;;;;2.28;2.08;;;19.80;54.40;;;;;;5071212;28;20224;-66
2023/05/31 04:13:10;;;;;;;3.08;2.30;;;19.80;54.50;;;;;;5071882;28;20162;-66
2023/05/31 04:15:36;;;;;;;2.42;2.22;;;19.80;54.40;;;;;;5072937;28;20176;-67
2023/05/31 04:18:01;;;;;;;2.67;2.47;;;19.80;54.40;;;;;;5075309;28;20530;-66
2023/05/31 04:20:27;;;;;;;2.17;2.08;;;19.80;54.40;;;;;;5075598;28;20715;-67
2023/05/31 04:22:53;;;;;;;1.95;1.75;;;19.80;54.40;;;;;;5075692;28;20573;-66
2023/05/31 04:25:19;;;;;;;2.40;2.20;;;19.80;54.80;;;;;;5074675;28;20171;-67
2023/05/31 04:27:46;;;;;;;2.22;2.00;;;19.80;54.30;;;;;;5075796;28;20190;-66
2023/05/31 04:30:12;;;;;;;2.75;2.55;;;19.80;54.30;;;;;;5075057;28;20177;-67
2023/05/31 04:32:37;;;;;;;2.50;2.30;;;19.80;54.30;;;;;;5075024;28;20179;-67
2023/05/31 04:35:03;;;;;;;2.92;2.30;;;19.80;54.30;;;;;;5075554;28;20695;-68
2023/05/31 04:37:29;;;;;;;3.05;2.40;;;19.80;54.30;;;;;;5074668;28;20742;-67
2023/05/31 04:39:58;;;;;;;2.53;2.35;;;19.80;54.30;;;;;;5074615;28;20185;-67
2023/05/31 04:42:27;;;;;;;2.63;2.42;;;19.80;54.30;;;;;;5075037;28;20600;-67
2023/05/31 04:44:57;;;;;;;2.35;2.00;;;19.80;54.30;;;;;;5075401;28;20289;-67
2023/05/31 04:47:28;;;;;;;2.53;2.33;;;19.80;54.30;;;;;;5074260;28;20171;-67
2023/05/31 04:49:56;;;;;;;3.08;2.33;;;19.80;54.30;;;;;;5075323;28;20179;-67
2023/05/31 04:52:28;;;;;;;2.40;2.20;;;19.80;54.30;;;;;;5074787;28;20548;-67
2023/05/31 04:54:57;;;;;;;3.55;2.63;;;19.80;54.30;;;;;;5074384;28;20550;-66
2023/05/31 04:57:23;;;;;;;2.60;2.40;;;19.80;54.40;;;;;;5074620;28;20182;-67
2023/05/31 04:59:49;;;;;;;2.63;2.40;;;19.80;54.40;;;;;;5074979;28;20170;-68
2023/05/31 05:02:16;;;;;;;2.83;2.50;;;19.80;54.30;;;;;;5074149;28;20517;-68
2023/05/31 05:04:41;;;;;;;3.28;2.80;;;19.80;54.30;;;;;;5074796;28;20532;-69
2023/05/31 05:07:07;;;;;;;2.80;2.60;;;19.80;54.30;;;;;;5074010;28;20181;-67
2023/05/31 05:09:33;;;;;;;3.28;2.42;;;19.80;54.30;;;;;;5074726;28;20667;-67
2023/05/31 05:11:58;;;;;;;4.32;2.78;;;19.80;54.30;;;;;;5074662;28;20214;-66
2023/05/31 05:14:24;;;;;;;3.22;2.92;;;19.80;54.30;;;;;;5073662;28;20657;-67
2023/05/31 05:16:49;;;;;;;3.70;2.58;;;19.80;54.40;;;;;;5074454;28;20204;-67
2023/05/31 05:19:15;;;;;;;2.60;2.35;;;19.90;54.40;;;;;;5074231;28;20257;-67
2023/05/31 05:21:41;;;;;;;2.80;2.60;;;19.80;54.30;;;;;;5073759;28;20207;-67
2023/05/31 05:24:06;;;;;;;2.60;2.40;;;19.90;54.30;;;;;;5073959;28;20228;-67
2023/05/31 05:26:32;;;;;;;3.10;2.80;;;19.80;54.40;;;;;;5074219;28;20234;-67
2023/05/31 05:28:58;;;;;;;2.80;2.60;;;19.90;54.40;;;;;;5073593;28;20632;-67
2023/05/31 05:31:23;;;;;;;2.80;2.30;;;19.80;55.00;;;;;;5074047;28;20217;-67
2023/05/31 05:33:50;;;;;;;2.67;2.47;;;19.90;54.40;;;;;;5074457;28;20170;-69
2023/05/31 05:36:16;;;;;;;2.92;2.70;;;19.90;54.40;;;;;;5073223;28;20269;-69
2023/05/31 05:38:41;;;;;;;2.83;2.63;;;19.90;54.40;;;;;;5074001;28;20254;-68
2023/05/31 05:41:10;;;;;;;3.20;2.90;;;19.90;54.40;;;;;;5074079;28;20182;-68
2023/05/31 05:43:36;;;;;;;3.13;2.78;;;19.80;54.40;;;;;;5073645;28;20205;-68
2023/05/31 05:46:02;;;;;;;2.97;2.40;;;19.90;54.40;;;;;;5074183;28;20202;-67
2023/05/31 05:48:27;;;;;;;2.92;2.72;;;19.80;54.40;;;;;;5073655;28;20166;-68
2023/05/31 05:50:53;;;;;;;2.70;2.50;;;19.90;54.50;;;;;;5073470;28;20719;-66
2023/05/31 05:53:18;;;;;;;2.95;2.67;;;19.90;54.50;;;;;;5073703;28;20561;-67
2023/05/31 05:55:53;;;;;;;2.70;2.50;;;19.80;54.50;;;;;;5074072;28;20174;-67
2023/05/31 05:58:19;;;;;;;2.92;2.63;;;19.90;54.50;;;;;;5073149;28;20208;-68
2023/05/31 06:00:46;;;;;;;2.83;2.58;;;19.80;54.50;;;;;;5074133;28;20198;-69
2023/05/31 06:03:15;;;;;;;3.80;3.03;;;19.90;54.50;;;;;;5073234;28;20178;-69
2023/05/31 06:05:43;;;;;;;2.60;2.40;;;19.90;54.50;;;;;;5074009;28;20178;-69
2023/05/31 06:08:12;;;;;;;2.42;2.22;;;19.90;54.50;;;;;;5073737;28;20185;-67
2023/05/31 06:10:40;;;;;;;3.42;3.10;;;19.90;54.50;;;;;;5073421;28;20202;-67
2023/05/31 06:13:06;;;;;;;2.92;2.30;;;19.90;54.50;;;;;;5073699;28;20255;-67
2023/05/31 06:15:31;;;;;;;2.88;2.50;;;19.90;54.60;;;;;;5073850;28;20589;-67
2023/05/31 06:17:57;;;;;;;3.50;2.80;;;19.90;54.50;;;;;;5073270;28;20181;-67
2023/05/31 06:20:23;;;;;;;2.80;2.58;;;19.90;54.50;;;;;;5073571;28;20181;-68
2023/05/31 06:22:49;;;;;;;2.70;2.50;;;19.90;54.50;;;;;;5073778;28;20174;-68
2023/05/31 06:25:16;;;;;;;2.53;2.33;;;19.90;54.50;;;;;;5072946;28;20192;-67
2023/05/31 06:27:41;;;;;;;2.55;2.35;;;19.90;54.50;;;;;;5074059;28;20251;-67
2023/05/31 06:30:08;;;;;;;2.47;2.28;;;19.90;54.50;;;;;;5073538;28;20652;-68
2023/05/31 06:32:34;;;;;;;3.00;2.55;;;19.90;54.50;;;;;;5072889;28;20178;-68
2023/05/31 06:34:59;;;;;;;2.67;2.47;;;19.90;54.50;;;;;;5073546;28;20204;-69
2023/05/31 06:37:25;;;;;;;2.40;2.20;;;19.90;54.40;;;;;;5072999;28;21073;-70
2023/05/31 06:39:50;;;;;;;2.38;2.20;;;19.90;54.50;;;;;;5072460;28;20182;-69
2023/05/31 06:42:17;;;;;;;3.75;2.50;;;20.00;54.60;;;;;;5073247;28;20679;-73
2023/05/31 06:44:43;;;;;;;3.40;2.72;;;20.00;54.70;;;;;;5072407;28;20265;-68
2023/05/31 06:47:09;;;;;;;3.40;2.75;;;20.00;54.60;;;;;;5071416;28;20289;-69
2023/05/31 06:49:34;;;;;;;2.40;2.20;;;20.00;54.60;;;;;;5072439;28;20248;-68
2023/05/31 06:52:00;;;;;;;2.50;2.30;;;20.00;54.60;;;;;;5072894;28;20580;-68
2023/05/31 06:54:26;;;;;;;3.13;2.08;;;20.00;54.60;;;;;;5071992;28;20179;-68
2023/05/31 06:56:52;;;;;;;3.53;2.20;;;20.00;54.60;;;;;;5072903;28;20189;-68
2023/05/31 06:59:17;;;;;;;2.83;2.25;;;20.00;54.60;;;;;;5072478;28;20175;-70
2023/05/31 07:01:43;;;;;;;3.47;2.42;;;20.00;54.60;;;;;;5072295;28;20209;-70
2023/05/31 07:04:09;;;;;;;2.95;2.63;;;20.10;54.60;;;;;;5072865;28;20174;-70
2023/05/31 07:06:37;;;;;;;3.95;2.20;;;20.10;54.60;;;;;;5072593;28;20383;-69
2023/05/31 07:09:05;;;;;;;4.03;2.20;;;20.10;54.60;;;;;;5073137;28;20180;-69
2023/05/31 07:11:31;;;;;;;4.30;2.35;;;20.10;54.60;;;;;;5073043;28;20210;-68
2023/05/31 07:14:01;;;;;;;4.60;2.47;;;20.10;54.60;;;;;;5072170;28;20175;-68
2023/05/31 07:16:27;;;;;;;3.15;2.90;;;20.10;54.60;;;;;;5072642;28;20649;-68
2023/05/31 07:18:53;;;;;;;2.97;2.40;;;20.10;54.60;;;;;;5072887;28;20185;-68
2023/05/31 07:21:19;;;;;;;4.45;2.08;;;20.10;54.50;;;;;;5071827;28;20183;-69
2023/05/31 07:23:45;;;;;;;3.38;2.88;;;20.10;54.50;;;;;;5073014;28;20174;-68
2023/05/31 07:26:10;;;;;;;2.95;2.47;;;20.20;54.60;;;;;;5072327;28;20174;-68
2023/05/31 07:28:36;;;;;;;3.75;2.40;;;20.10;54.60;;;;;;5072074;28;20181;-68
2023/05/31 07:31:02;;;;;;;2.55;2.30;;;20.20;54.80;;;;;;5072400;28;20210;-69
2023/05/31 07:33:27;;;;;;;2.67;2.47;;;20.20;54.60;;;;;;5072401;28;20171;-70
2023/05/31 07:35:53;;;;;;;2.42;2.22;;;20.20;54.60;;;;;;5071876;28;20174;-70
2023/05/31 07:38:18;;;;;;;3.10;2.33;;;20.10;54.60;;;;;;5071816;28;20221;-69
2023/05/31 07:40:44;;;;;;;2.75;2.42;;;20.20;54.60;;;;;;5072317;28;20166;-64
2023/05/31 07:43:10;;;;;;;2.78;2.40;;;20.20;54.60;;;;;;5071035;28;20197;-68
2023/05/31 07:45:38;;;;;;;4.10;2.65;;;20.30;54.60;;;;;;5072287;28;20224;-67
2023/05/31 07:48:04;;;;;;;3.25;2.55;;;20.30;54.60;;;;;;5072154;28;20174;-66
2023/05/31 07:50:29;;;;;;;2.60;2.40;;;20.40;54.70;;;;;;5073978;28;20276;-66
2023/05/31 07:52:55;;;;;;;3.45;2.72;;;20.40;54.70;;;;;;5076412;28;20640;-66
2023/05/31 07:55:20;;;;;;;3.42;2.72;;;20.40;54.80;;;;;;5075988;28;20643;-67
2023/05/31 07:57:46;;;;;;;3.35;2.55;;;20.40;54.90;;;;;;5075486;28;20174;-68
2023/05/31 08:00:13;;;;;;;4.30;2.50;;;20.40;54.90;;;;;;5075941;28;20170;-68
2023/05/31 08:02:40;;;;;;;2.75;2.50;;;20.40;55.00;;;;;;5076365;28;20645;-68
2023/05/31 08:05:05;;;;;;;3.88;2.33;;;20.40;54.90;;;;;;5075602;28;20186;-68
2023/05/31 08:07:31;;;;;;;3.25;2.30;;;20.50;55.00;;;;;;5076640;28;20174;-67
2023/05/31 08:09:57;;;;;;;2.50;2.30;;;20.50;55.10;;;;;;5075733;28;20175;-66
2023/05/31 08:12:23;;;;;;;3.47;2.58;;;20.50;55.00;;;;;;5075821;28;20214;-67
2023/05/31 08:14:49;;;;;;;3.22;2.25;;;20.50;55.10;;;;;;5076098;28;20652;-67
2023/05/31 08:17:14;;;;;;;2.67;2.30;;;20.60;55.10;;;;;;5075002;28;20265;-67
2023/05/31 08:19:40;;;;;;;3.60;2.38;;;20.60;55.10;;;;;;5076251;28;20166;-69
2023/05/31 08:22:05;;;;;;;2.55;2.35;;;20.60;55.80;;;;;;5076047;28;20617;-70
2023/05/31 08:24:31;;;;;;;3.35;2.47;;;20.60;55.20;;;;;;5075273;28;20249;-69
2023/05/31 08:26:58;;;;;;;2.80;2.33;;;20.60;55.10;;;;;;5076066;28;20174;-70
2023/05/31 08:29:23;;;;;;;3.97;2.17;;;20.60;55.10;;;;;;5075319;28;20171;-70
2023/05/31 08:31:49;;;;;;;4.20;2.42;;;20.70;55.10;;;;;;5075064;28;20202;-70
2023/05/31 08:34:14;;;;;;;4.57;2.38;;;20.70;55.00;;;;;;5075724;28;20625;-71
2023/05/31 08:36:40;;;;;;;7.03;2.22;;;20.70;55.70;;;;;;5075866;28;20171;-70
2023/05/31 08:39:08;;;;;;;2.88;2.22;;;20.70;55.00;;;;;;5074686;28;20210;-71
2023/05/31 08:41:48;;;;;;;4.13;2.25;;;20.70;55.00;;;;;;5075651;28;20540;-70
2023/05/31 08:44:14;;;;;;;4.55;2.53;;;20.70;55.00;;;;;;5058946;28;20178;-70
2023/05/31 08:46:40;;;;;;;3.25;2.63;;;20.70;55.00;;;;;;5074881;28;20174;-69
2023/05/31 08:49:09;;;;;;;3.30;1.92;;;20.70;55.00;;;;;;5057789;28;20194;-69
2023/05/31 08:51:35;;;;;;;2.80;2.10;;;20.70;55.00;;;;;;5057851;28;20218;-69
2023/05/31 08:54:00;;;;;;;2.33;2.13;;;20.70;55.00;;;;;;5073599;28;20641;-69
2023/05/31 08:56:26;;;;;;;3.30;2.40;;;20.70;55.00;;;;;;5074068;28;20190;-71
2023/05/31 08:58:52;;;;;;;3.33;1.92;;;20.70;55.00;;;;;;5074236;28;20178;-71
2023/05/31 09:01:18;;;;;;;2.30;2.10;;;20.70;55.00;;;;;;5072800;28;20508;-72
2023/05/31 09:03:44;;;;;;;2.50;2.17;;;20.70;55.00;;;;;;5075312;28;20683;-71
2023/05/31 09:06:09;;;;;;;5.65;2.35;;;20.70;55.00;;;;;;5073244;28;20178;-70
2023/05/31 09:08:35;;;;;;;3.30;2.13;;;20.80;55.00;;;;;;5075324;28;20274;-69
2023/05/31 09:11:01;;;;;;;3.17;2.40;;;20.80;55.00;;;;;;5075297;28;20638;-69
2023/05/31 09:13:27;;;;;;;3.33;2.40;;;20.80;55.00;;;;;;5074209;28;20179;-70
2023/05/31 09:15:52;;;;;;;3.15;2.28;;;20.80;55.00;;;;;;5075075;28;20265;-71
2023/05/31 09:18:21;;;;;;;3.55;2.10;;;20.80;55.00;;;;;;5073737;28;20177;-71
2023/05/31 09:20:53;;;;;;;3.03;2.42;;;20.80;55.00;;;;;;5074331;28;20633;-71
2023/05/31 09:23:18;;;;;;;2.28;2.08;;;20.80;55.00;;;;;;5074714;28;20694;-70
2023/05/31 09:25:51;;;;;;;2.25;2.05;;;20.90;55.00;;;;;;5074940;28;20171;-71
2023/05/31 09:28:17;;;;;;;2.53;2.33;;;20.80;54.90;;;;;;5074361;28;20249;-70
2023/05/31 09:30:43;;;;;;;3.10;2.20;;;20.90;55.00;;;;;;5075010;28;20293;-70
2023/05/31 09:33:08;;;;;;;2.92;1.92;;;20.90;54.90;;;;;;5074632;28;20273;-71
2023/05/31 09:35:34;;;;;;;2.45;2.10;;;20.90;54.90;;;;;;5074025;28;20205;-71
2023/05/31 09:38:06;;;;;;;2.42;2.13;;;20.90;54.90;;;;;;5074523;28;20307;-71
2023/05/31 09:40:32;;;;;;;3.53;1.98;;;21.00;55.00;;;;;;5074803;28;20178;-72
2023/05/31 09:42:58;;;;;;;2.53;2.33;;;21.00;55.00;;;;;;5074176;28;20259;-70
2023/05/31 09:45:23;;;;;;;2.92;2.20;;;21.00;54.90;;;;;;5074417;28;20213;-69
2023/05/31 09:47:49;;;;;;;3.58;1.98;;;21.00;54.90;;;;;;5074614;28;20194;-69
2023/05/31 09:50:15;;;;;;;2.28;2.08;;;21.00;54.90;;;;;;5073498;28;20178;-69
2023/05/31 09:52:42;;;;;;;3.00;2.25;;;21.00;54.80;;;;;;5074453;28;20186;-69
2023/05/31 09:55:08;;;;;;;3.47;2.08;;;21.10;54.90;;;;;;5072804;28;20170;-69
2023/05/31 09:57:43;;;;;;;2.22;2.03;;;21.10;54.90;;;;;;5073817;28;20190;-70
2023/05/31 10:00:17;;;;;;;3.65;2.10;;;21.10;54.80;;;;;;5074020;28;20181;-71
2023/05/31 10:02:53;;;;;;;1.95;1.83;;;21.10;54.80;;;;;;5073676;28;20172;-70
2023/05/31 10:05:19;;;;;;;2.78;2.15;;;21.10;54.80;;;;;;5073957;28;20188;-68
2023/05/31 10:07:47;;;;;;;1.98;1.88;;;21.20;54.90;;;;;;5074353;28;20186;-69
2023/05/31 10:10:13;;;;;;;1.92;1.67;;;21.20;54.90;;;;;;5072967;28;20640;-69
2023/05/31 10:12:51;;;;;;;2.08;1.80;;;21.20;54.80;;;;;;5073519;28;20183;-69
2023/05/31 10:15:22;;;;;;;2.80;2.30;;;21.20;54.90;;;;;;5072360;28;20167;-70
2023/05/31 10:18:05;;;;;;;2.35;2.08;;;21.20;54.80;;;;;;5073271;28;20184;-71
2023/05/31 10:20:47;;;;;;;2.47;2.03;;;21.20;54.70;;;;;;5074027;28;20209;-70
2023/05/31 10:23:23;;;;;;;2.45;2.25;;;21.20;54.70;;;;;;5073559;28;20178;-69
2023/05/31 10:26:13;;;;;;;2.10;1.77;;;21.20;54.70;;;;;;5073551;28;20690;-69
2023/05/31 10:28:44;;;;;;;2.60;2.08;;;21.20;54.70;;;;;;5073742;28;20174;-69
2023/05/31 10:31:11;;;;;;;1.80;1.70;;;21.30;54.70;;;;;;5071403;28;20576;-69
2023/05/31 10:33:36;;;;;;;2.47;1.88;;;21.30;54.80;;;;;;5073783;28;20182;-70
2023/05/31 10:36:02;;;;;;;2.45;2.03;;;21.30;54.80;;;;;;5072507;28;20175;-71
2023/05/31 10:38:30;;;;;;;2.08;1.98;;;21.30;54.80;;;;;;5072321;28;20233;-70
2023/05/31 10:41:08;;;;;;;2.45;2.13;;;21.30;54.70;;;;;;5072169;28;20540;-70
2023/05/31 10:43:38;;;;;;;2.45;1.90;;;21.30;54.80;;;;;;5072707;28;20515;-70
2023/05/31 10:46:09;;;;;;;2.45;1.88;;;21.30;54.70;;;;;;5071589;28;20289;-68
2023/05/31 10:48:45;;;;;;;2.47;2.22;;;21.30;54.70;;;;;;5072519;28;20219;-68
2023/05/31 10:51:12;;;;;;;2.25;2.05;;;21.40;54.80;;;;;;5073048;28;20293;-69
2023/05/31 10:53:38;;;;;;;2.53;2.33;;;21.40;54.80;;;;;;5072830;28;20202;-69
2023/05/31 10:56:11;;;;;;;1.92;1.83;;;21.40;54.80;;;;;;5073314;28;20174;-69
2023/05/31 10:58:37;;;;;;;2.95;2.28;;;21.40;54.80;;;;;;5072646;28;20184;-71
2023/05/31 11:01:21;;;;;;;2.50;1.90;;;21.40;54.70;;;;;;5072999;28;20766;-71
2023/05/31 11:03:50;;;;;;;2.83;1.88;;;21.40;54.70;;;;;;5073168;28;20228;-70
2023/05/31 11:06:38;;;;;;;2.25;1.80;;;21.40;54.70;;;;;;5072208;28;20174;-69
2023/05/31 11:09:15;;;;;;;2.38;1.58;;;21.40;54.70;;;;;;5072047;28;20179;-69
2023/05/31 11:11:40;;;;;;;2.30;2.05;;;21.40;54.70;;;;;;5072989;28;20217;-69
2023/05/31 11:14:16;;;;;;;2.83;1.80;;;21.50;54.70;;;;;;5071923;28;20193;-69
2023/05/31 11:16:47;;;;;;;2.72;1.95;;;21.50;54.70;;;;;;5072982;28;20178;-69
2023/05/31 11:19:14;;;;;;;2.83;2.00;;;21.50;54.70;;;;;;5072862;28;20185;-70
2023/05/31 11:21:47;;;;;;;2.33;1.77;;;21.50;54.70;;;;;;5072360;28;20178;-70
2023/05/31 11:24:37;;;;;;;2.28;2.08;;;21.50;54.70;;;;;;5072490;28;20543;-69
2023/05/31 11:27:03;;;;;;;2.75;2.08;;;21.50;54.70;;;;;;5072494;28;20178;-69
2023/05/31 11:29:44;;;;;;;2.42;2.08;;;21.50;54.70;;;;;;5072697;28;20171;-68
2023/05/31 11:32:10;;;;;;;2.72;2.10;;;21.50;54.70;;;;;;5072468;28;20214;-70
2023/05/31 11:34:48;;;;;;;2.10;1.67;;;21.50;54.70;;;;;;5072111;28;20264;-70
2023/05/31 11:37:13;;;;;;;2.00;1.90;;;21.50;54.70;;;;;;5071264;28;20234;-70
2023/05/31 11:39:42;;;;;;;2.08;1.88;;;21.50;54.70;;;;;;5072732;28;20644;-70
2023/05/31 11:42:08;;;;;;;2.17;1.83;;;21.60;54.70;;;;;;5054461;28;20178;-70
2023/05/31 11:44:34;;;;;;;2.28;2.08;;;21.60;54.80;;;;;;5054864;28;20189;-69
2023/05/31 11:47:10;;;;;;;2.45;2.17;;;21.60;54.70;;;;;;5054863;28;20182;-69
2023/05/31 11:49:35;;;;;;;3.22;2.20;;;21.60;54.70;;;;;;5071720;28;20185;-69
2023/05/31 11:52:02;;;;;;;2.05;1.85;;;21.60;54.60;;;;;;5072491;28;20217;-69
2023/05/31 11:54:29;;;;;;;2.92;2.38;;;21.60;54.60;;;;;;5072509;28;20175;-69
2023/05/31 11:56:59;;;;;;;2.13;1.90;;;21.60;54.60;;;;;;5072009;28;20193;-70
2023/05/31 11:59:27;;;;;;;4.07;2.42;;;21.70;54.60;;;;;;5072345;28;20176;-71
2023/05/31 12:01:56;;;;;;;2.00;1.77;;;21.70;54.60;;;;;;5071801;28;20220;-70
2023/05/31 12:04:24;;;;;;;2.08;1.90;;;21.70;54.60;;;;;;5071088;28;20175;-69
2023/05/31 12:06:51;;;;;;;2.33;1.70;;;21.60;54.60;;;;;;5055001;28;20183;-68
2023/05/31 12:09:17;;;;;;;3.22;1.95;;;21.70;54.60;;;;;;5070448;28;20175;-68
2023/05/31 12:11:42;;;;;;;3.78;2.00;;;21.70;54.50;;;;;;5072499;28;20554;-69
2023/05/31 12:14:11;;;;;;;2.50;2.28;;;21.70;54.50;;;;;;5071092;28;20698;-69
2023/05/31 12:16:37;;;;;;;2.75;2.00;;;21.70;54.50;;;;;;5071828;28;20586;-69
2023/05/31 12:19:02;;;;;;;2.85;2.55;;;21.70;54.40;;;;;;5072162;28;20171;-70
2023/05/31 12:21:28;;;;;;;2.42;2.03;;;21.70;54.40;;;;;;5072231;28;20183;-70
2023/05/31 12:23:55;;;;;;;2.90;1.67;;;21.80;54.40;;;;;;5071723;28;20533;-69
2023/05/31 12:26:21;;;;;;;2.10;1.90;;;21.70;54.40;;;;;;5071914;28;20552;-69
2023/05/31 12:28:47;;;;;;;2.30;1.70;;;21.80;54.40;;;;;;5072178;28;20257;-69
2023/05/31 12:31:22;;;;;;;2.42;2.22;;;21.80;54.40;;;;;;5069889;28;20293;-69
2023/05/31 12:33:57;;;;;;;2.00;1.90;;;21.80;54.30;;;;;;5072440;28;20258;-70
2023/05/31 12:36:22;;;;;;;2.55;1.75;;;21.80;54.30;;;;;;5072719;28;20203;-71
2023/05/31 12:38:53;;;;;;;2.15;1.85;;;21.80;54.30;;;;;;5075096;28;20752;-71
2023/05/31 12:41:19;;;;;;;1.90;1.65;;;21.80;54.30;;;;;;5075457;28;20702;-71
2023/05/31 12:43:45;;;;;;;2.20;1.92;;;21.80;54.30;;;;;;5075783;28;20183;-70
2023/05/31 12:46:15;;;;;;;2.72;2.00;;;21.70;54.20;;;;;;5074951;28;20224;-70
2023/05/31 12:48:46;;;;;;;2.30;2.10;;;21.90;54.30;;;;;;5074677;28;20189;-69